createdAt,value
2023-04-16T00:03:09.992Z,89.99
2023-04-16T00:06:32.162Z,90.65
2023-04-16T00:09:53.448Z,90.00
2023-04-16T00:13:15.510Z,89.92
2023-04-16T00:16:39.853Z,90.06
2023-04-16T00:20:01.327Z,89.61
2023-04-16T00:23:25.301Z,90.26
2023-04-16T00:26:47.587Z,90.26
2023-04-16T00:30:10.815Z,90.39
2023-04-16T00:33:34.348Z,89.95
2023-04-16T00:36:56.674Z,90.22
2023-04-16T00:40:18.158Z,91.08
2023-04-16T00:43:39.768Z,90.59
2023-04-16T00:47:01.425Z,90.75
2023-04-16T00:50:24.979Z,90.48
2023-04-16T00:53:47.465Z,90.06
2023-04-16T00:57:09.318Z,90.39
2023-04-16T01:00:31.178Z,90.34
2023-04-16T01:03:53.191Z,90.13
2023-04-16T01:07:16.699Z,90.69
2023-04-16T01:10:38.889Z,90.79
2023-04-16T01:14:00.595Z,90.49
2023-04-16T01:17:22.609Z,90.79
2023-04-16T01:20:46.766Z,91.00
2023-04-16T01:24:08.997Z,90.25
2023-04-16T01:27:31.209Z,90.61
2023-04-16T01:30:52.608Z,90.65
2023-04-16T01:34:23.589Z,90.12
2023-04-16T01:37:47.379Z,90.39
2023-04-16T01:41:09.353Z,90.51
2023-04-16T01:44:31.390Z,90.44
2023-04-16T01:47:54.026Z,90.38
2023-04-16T01:51:15.543Z,90.16
2023-04-16T01:54:38.740Z,91.06
2023-04-16T01:58:00.288Z,91.05
2023-04-16T02:01:25.880Z,91.72
2023-04-16T02:04:47.673Z,91.53
2023-04-16T02:08:09.974Z,91.70
2023-04-16T02:11:33.038Z,91.67
2023-04-16T02:14:55.542Z,91.27
2023-04-16T02:18:20.168Z,91.45
2023-04-16T02:21:42.262Z,92.15
2023-04-16T02:25:04.544Z,92.02
2023-04-16T02:28:27.472Z,92.00
2023-04-16T02:31:50.151Z,91.75
2023-04-16T02:35:12.754Z,90.88
2023-04-16T02:38:34.569Z,91.53
2023-04-16T02:41:56.165Z,91.62
2023-04-16T02:45:19.658Z,91.19
2023-04-16T02:48:41.430Z,91.45
2023-04-16T02:52:03.131Z,91.27
2023-04-16T02:55:25.144Z,91.16
2023-04-16T02:58:46.669Z,91.87
2023-04-16T03:02:09.812Z,91.40
2023-04-16T03:05:32.101Z,91.86
2023-04-16T03:08:54.063Z,91.37
2023-04-16T03:12:16.103Z,91.23
2023-04-16T03:15:37.914Z,91.35
2023-04-16T03:19:01.356Z,91.89
2023-04-16T03:22:23.273Z,91.99
2023-04-16T03:25:47.010Z,91.85
2023-04-16T03:29:12.206Z,91.92
2023-04-16T03:32:33.986Z,92.15
2023-04-16T03:35:59.074Z,91.60
2023-04-16T03:39:24.000Z,91.76
2023-04-16T03:42:46.204Z,92.11
2023-04-16T03:46:08.224Z,91.85
2023-04-16T03:49:30.654Z,91.68
2023-04-16T03:52:55.407Z,91.89
2023-04-16T03:56:17.563Z,91.77
2023-04-16T03:59:39.586Z,91.71
2023-04-16T04:03:01.913Z,91.80
2023-04-16T04:06:23.967Z,91.75
2023-04-16T04:09:47.546Z,91.57
2023-04-16T04:13:10.993Z,91.47
2023-04-16T04:16:33.279Z,91.39
2023-04-16T04:23:22.025Z,91.57
2023-04-16T04:26:46.227Z,91.61
2023-04-16T04:30:10.078Z,91.53
2023-04-16T04:33:33.162Z,90.91
2023-04-16T04:36:54.852Z,90.81
2023-04-16T04:40:16.942Z,90.89
2023-04-16T04:43:41.530Z,90.92
2023-04-16T04:47:03.274Z,90.32
2023-04-16T04:50:25.504Z,90.43
2023-04-16T04:53:47.393Z,90.69
2023-04-16T04:57:10.033Z,90.85
2023-04-16T05:00:33.846Z,90.83
2023-04-16T05:03:56.054Z,90.49
2023-04-16T05:07:18.000Z,90.80
2023-04-16T05:10:39.370Z,91.01
2023-04-16T05:14:01.053Z,91.38
2023-04-16T05:17:24.045Z,91.26
2023-04-16T05:20:45.635Z,91.33
2023-04-16T05:24:08.532Z,91.41
2023-04-16T05:27:30.159Z,91.79
2023-04-16T05:30:52.137Z,91.90
2023-04-16T05:34:15.482Z,91.94
2023-04-16T05:37:37.007Z,91.77
2023-04-16T05:40:59.742Z,92.10
2023-04-16T05:44:21.416Z,92.18
2023-04-16T05:47:43.450Z,92.60
2023-04-16T05:51:07.219Z,92.50
2023-04-16T05:54:29.114Z,92.89
2023-04-16T05:57:50.532Z,92.28
2023-04-16T06:01:12.667Z,92.40
2023-04-16T06:04:35.789Z,92.38
2023-04-16T06:07:59.390Z,92.82
2023-04-16T06:11:21.263Z,93.15
2023-04-16T06:14:43.484Z,93.21
2023-04-16T06:18:04.949Z,93.25
2023-04-16T06:21:27.741Z,92.33
2023-04-16T06:24:50.995Z,92.56
2023-04-16T06:28:12.696Z,92.07
2023-04-16T06:31:34.484Z,92.24
2023-04-16T06:34:56.502Z,92.46
2023-04-16T06:38:18.234Z,92.44
2023-04-16T06:41:41.961Z,92.22
2023-04-16T06:45:03.791Z,92.29
2023-04-16T06:48:25.348Z,92.07
2023-04-16T06:51:47.448Z,92.24
2023-04-16T06:55:10.165Z,91.75
2023-04-16T06:58:34.011Z,91.88
2023-04-16T07:01:55.775Z,91.49
2023-04-16T07:05:17.865Z,92.16
2023-04-16T07:08:39.608Z,91.99
2023-04-16T07:12:02.168Z,92.04
2023-04-16T07:15:26.079Z,91.94
2023-04-16T07:18:47.910Z,91.73
2023-04-16T07:22:09.485Z,91.84
2023-04-16T07:25:30.848Z,91.94
2023-04-16T07:28:52.726Z,92.34
2023-04-16T07:32:16.076Z,91.90
2023-04-16T07:35:37.746Z,92.24
2023-04-16T07:38:59.905Z,92.22
2023-04-16T07:42:21.712Z,91.77
2023-04-16T07:45:44.180Z,92.56
2023-04-16T07:49:07.658Z,91.99
2023-04-16T07:52:29.498Z,92.50
2023-04-16T07:55:50.965Z,92.42
2023-04-16T07:59:21.863Z,91.75
2023-04-16T08:02:45.659Z,91.60
2023-04-16T08:06:08.996Z,90.86
2023-04-16T08:09:31.786Z,90.99
2023-04-16T08:12:53.504Z,91.82
2023-04-16T08:16:14.990Z,92.04
2023-04-16T08:19:37.013Z,92.92
2023-04-16T08:23:00.394Z,92.51
2023-04-16T08:26:21.779Z,92.12
2023-04-16T08:29:43.442Z,92.33
2023-04-16T08:33:05.035Z,92.08
2023-04-16T08:36:28.095Z,91.87
2023-04-16T08:39:50.996Z,91.45
2023-04-16T08:43:14.440Z,91.10
2023-04-16T08:46:38.481Z,90.64
2023-04-16T08:50:00.726Z,90.25
2023-04-16T08:53:29.552Z,89.93
2023-04-16T08:56:53.269Z,90.95
2023-04-16T09:00:16.753Z,90.43
2023-04-16T09:03:38.338Z,90.91
2023-04-16T09:07:01.219Z,90.91
2023-04-16T09:10:23.552Z,90.52
2023-04-16T09:13:47.961Z,89.59
2023-04-16T09:17:10.939Z,90.44
2023-04-16T09:20:32.285Z,89.35
2023-04-16T09:23:54.412Z,87.67
2023-04-16T09:27:16.657Z,87.66
2023-04-16T09:30:39.873Z,88.20
2023-04-16T09:34:03.922Z,88.27
2023-04-16T09:37:26.651Z,87.66
2023-04-16T09:40:48.593Z,87.67
2023-04-16T09:44:10.514Z,86.82
2023-04-16T09:47:42.314Z,86.34
2023-04-16T09:51:06.821Z,85.50
2023-04-16T09:54:28.253Z,85.33
2023-04-16T09:57:50.111Z,85.59
2023-04-16T10:01:13.377Z,85.23
2023-04-16T10:04:46.981Z,85.76
2023-04-16T10:08:15.564Z,84.94
2023-04-16T10:11:37.856Z,85.13
2023-04-16T10:14:59.536Z,85.35
2023-04-16T10:18:22.191Z,85.28
2023-04-16T10:21:46.430Z,85.14
2023-04-16T10:25:09.450Z,85.51
2023-04-16T10:28:31.846Z,85.08
2023-04-16T10:31:55.289Z,84.72
2023-04-16T10:35:20.268Z,83.40
2023-04-16T10:38:49.257Z,82.74
2023-04-16T10:42:12.355Z,83.57
2023-04-16T10:45:38.926Z,83.33
2023-04-16T10:49:03.049Z,83.20
2023-04-16T10:52:25.536Z,82.99
2023-04-16T10:56:15.945Z,83.82
2023-04-16T10:59:39.750Z,83.52
2023-04-16T11:03:02.221Z,82.91
2023-04-16T11:06:26.643Z,83.90
2023-04-16T11:09:54.305Z,85.12
2023-04-16T11:13:18.081Z,85.42
2023-04-16T11:16:42.357Z,84.78
2023-04-16T11:20:05.164Z,85.23
2023-04-16T11:23:50.300Z,85.34
2023-04-16T11:27:13.930Z,84.93
2023-04-16T11:30:38.603Z,85.15
2023-04-16T11:34:00.981Z,85.69
2023-04-16T11:37:33.059Z,86.51
2023-04-16T11:40:55.164Z,85.79
2023-04-16T11:44:21.565Z,86.71
2023-04-16T11:47:51.883Z,86.46
2023-04-16T11:51:13.796Z,85.56
2023-04-16T11:54:36.958Z,86.23
2023-04-16T11:57:58.637Z,85.96
2023-04-16T12:01:22.052Z,86.02
2023-04-16T12:04:45.017Z,85.25
2023-04-16T12:08:08.626Z,85.37
2023-04-16T12:11:41.269Z,85.16
2023-04-16T12:15:04.597Z,85.37
2023-04-16T12:19:16.420Z,85.09
2023-04-16T12:22:41.504Z,83.82
2023-04-16T12:26:10.572Z,83.79
2023-04-16T12:29:32.664Z,83.97
2023-04-16T12:33:14.355Z,83.53
2023-04-16T12:36:36.190Z,83.32
2023-04-16T12:39:58.921Z,82.02
2023-04-16T12:43:22.085Z,82.24
2023-04-16T12:46:44.552Z,83.28
2023-04-16T12:50:07.249Z,82.91
2023-04-16T12:53:28.978Z,82.11
2023-04-16T12:56:52.029Z,83.14
2023-04-16T13:00:15.189Z,83.04
2023-04-16T13:03:37.333Z,81.92
2023-04-16T13:06:59.420Z,81.16
2023-04-16T13:10:23.464Z,80.66
2023-04-16T13:13:46.618Z,80.71
2023-04-16T13:17:08.233Z,81.00
2023-04-16T13:20:30.271Z,81.61
2023-04-16T13:23:54.060Z,80.11
2023-04-16T13:27:16.928Z,80.16
2023-04-16T13:30:41.069Z,80.50
2023-04-16T13:34:03.498Z,80.08
2023-04-16T13:37:25.325Z,80.97
2023-04-16T13:40:46.900Z,80.32
2023-04-16T13:44:08.806Z,80.71
2023-04-16T13:47:31.944Z,80.67
2023-04-16T13:50:53.619Z,80.40
2023-04-16T13:54:15.501Z,80.54
2023-04-16T13:57:37.847Z,80.76
2023-04-16T14:00:59.564Z,80.72
2023-04-16T14:04:22.674Z,80.15
2023-04-16T14:07:44.362Z,80.73
2023-04-16T14:11:06.602Z,80.65
2023-04-16T14:14:28.499Z,81.62
2023-04-16T14:17:49.965Z,81.54
2023-04-16T14:21:14.496Z,80.92
2023-04-16T14:24:36.207Z,81.00
2023-04-16T14:27:57.667Z,81.22
2023-04-16T14:31:20.930Z,80.79
2023-04-16T14:34:42.843Z,81.40
2023-04-16T14:38:05.965Z,81.25
2023-04-16T14:41:27.638Z,81.52
2023-04-16T14:44:49.664Z,81.44
2023-04-16T14:48:11.212Z,81.23
2023-04-16T14:51:33.990Z,80.89
2023-04-16T14:54:57.221Z,81.49
2023-04-16T14:58:19.295Z,82.49
2023-04-16T15:01:41.500Z,82.34
2023-04-16T15:05:03.349Z,82.74
2023-04-16T15:08:25.719Z,83.09
2023-04-16T15:11:48.861Z,82.46
2023-04-16T15:15:11.805Z,82.86
2023-04-16T15:18:34.362Z,82.98
2023-04-16T15:21:56.338Z,83.32
2023-04-16T15:25:17.913Z,82.41
2023-04-16T15:28:40.790Z,81.63
2023-04-16T15:32:02.683Z,82.88
2023-04-16T15:35:24.360Z,82.71
2023-04-16T15:38:46.007Z,83.19
2023-04-16T15:42:08.469Z,81.98
2023-04-16T15:45:31.939Z,82.68
2023-04-16T15:48:53.360Z,82.68
2023-04-16T15:52:15.528Z,83.14
2023-04-16T15:55:37.262Z,82.28
2023-04-16T15:58:58.804Z,82.18
2023-04-16T16:02:22.067Z,82.49
2023-04-16T16:05:43.567Z,82.65
2023-04-16T16:09:05.284Z,81.40
2023-04-16T16:12:27.328Z,81.47
2023-04-16T16:15:48.770Z,82.09
2023-04-16T16:19:12.510Z,81.06
2023-04-16T16:22:34.259Z,81.55
2023-04-16T16:25:56.059Z,81.13
2023-04-16T16:29:17.967Z,81.12
2023-04-16T16:32:40.918Z,81.78
2023-04-16T16:36:06.102Z,80.75
2023-04-16T16:39:27.858Z,81.82
2023-04-16T16:42:49.503Z,82.06
2023-04-16T16:46:11.519Z,82.04
2023-04-16T16:49:32.964Z,81.44
2023-04-16T16:52:56.017Z,81.83
2023-04-16T16:56:18.394Z,82.10
2023-04-16T16:59:39.998Z,81.76
2023-04-16T17:03:02.011Z,82.25
2023-04-16T17:06:27.171Z,82.31
2023-04-16T17:09:50.557Z,82.89
2023-04-16T17:13:13.643Z,83.05
2023-04-16T17:16:35.247Z,82.96
2023-04-16T17:19:57.120Z,82.77
2023-04-16T17:23:19.139Z,83.31
2023-04-16T17:26:42.134Z,83.54
2023-04-16T17:30:05.764Z,83.50
2023-04-16T17:33:27.593Z,83.59
2023-04-16T17:36:50.525Z,84.38
2023-04-16T17:40:14.480Z,83.87
2023-04-16T17:43:37.158Z,83.84
2023-04-16T17:46:58.898Z,83.69
2023-04-16T17:50:20.747Z,83.37
2023-04-16T17:53:43.554Z,83.68
2023-04-16T17:57:05.325Z,82.85
2023-04-16T18:00:28.609Z,83.09
2023-04-16T18:03:50.895Z,83.13
2023-04-16T18:07:13.297Z,82.32
2023-04-16T18:10:34.864Z,82.47
2023-04-16T18:13:56.334Z,82.75
2023-04-16T18:17:21.919Z,82.13
2023-04-16T18:20:44.047Z,81.74
2023-04-16T18:24:06.774Z,81.51
2023-04-16T18:27:28.806Z,81.41
2023-04-16T18:30:50.865Z,81.46
2023-04-16T18:34:13.596Z,81.14
2023-04-16T18:37:35.504Z,80.25
2023-04-16T18:40:57.135Z,80.58
2023-04-16T18:44:19.795Z,81.18
2023-04-16T18:47:41.656Z,81.28
2023-04-16T18:51:05.172Z,80.94
2023-04-16T18:54:27.609Z,81.73
2023-04-16T18:57:49.329Z,81.51
2023-04-16T19:01:13.652Z,81.38
2023-04-16T19:04:35.437Z,82.01
2023-04-16T19:07:58.231Z,82.07
2023-04-16T19:11:20.377Z,82.06
2023-04-16T19:14:42.164Z,81.97
2023-04-16T19:18:04.047Z,82.33
2023-04-16T19:21:25.893Z,82.79
2023-04-16T19:24:48.709Z,82.86
2023-04-16T19:28:10.604Z,83.12
2023-04-16T19:31:32.567Z,82.98
2023-04-16T19:34:54.200Z,82.96
2023-04-16T19:38:15.761Z,83.09
2023-04-16T19:41:39.159Z,83.18
2023-04-16T19:45:00.894Z,82.97
2023-04-16T19:48:23.103Z,83.03
2023-04-16T19:51:46.139Z,83.22
2023-04-16T19:55:08.819Z,83.57
2023-04-16T19:58:31.943Z,83.59
2023-04-16T20:01:54.085Z,84.08
2023-04-16T20:05:16.247Z,84.05
2023-04-16T20:08:38.614Z,83.92
2023-04-16T20:12:00.921Z,83.90
2023-04-16T20:15:24.197Z,84.50
2023-04-16T20:18:46.489Z,84.77
2023-04-16T20:22:08.004Z,84.67
2023-04-16T20:25:30.407Z,84.87
2023-04-16T20:28:51.901Z,84.56
2023-04-16T20:32:15.402Z,84.72
2023-04-16T20:35:37.111Z,84.75
2023-04-16T20:38:59.493Z,84.90
2023-04-16T20:42:22.529Z,84.66
2023-04-16T20:45:46.114Z,85.06
2023-04-16T20:49:09.171Z,85.33
2023-04-16T20:52:30.996Z,85.33
2023-04-16T20:55:52.335Z,85.11
2023-04-16T20:59:14.329Z,85.18
2023-04-16T21:02:36.193Z,85.43
2023-04-16T21:05:59.454Z,85.62
2023-04-16T21:09:21.583Z,85.21
2023-04-16T21:12:43.370Z,84.88
2023-04-16T21:16:06.199Z,84.86
2023-04-16T21:19:27.852Z,84.95
2023-04-16T21:22:55.126Z,84.69
2023-04-16T21:26:17.094Z,85.40
2023-04-16T21:29:39.042Z,85.36
2023-04-16T21:33:00.883Z,85.15
2023-04-16T21:36:22.394Z,85.07
2023-04-16T21:39:45.940Z,85.20
2023-04-16T21:43:07.943Z,84.75
2023-04-16T21:46:29.814Z,84.67
2023-04-16T21:49:51.662Z,84.83
2023-04-16T21:53:13.902Z,84.43
2023-04-16T21:56:36.915Z,84.26
2023-04-16T21:59:58.432Z,83.67
2023-04-16T22:03:26.221Z,83.53
2023-04-16T22:06:48.509Z,83.22
2023-04-16T22:10:11.806Z,82.57
2023-04-16T22:13:38.199Z,82.66
2023-04-16T22:16:59.906Z,82.32
2023-04-16T22:20:22.349Z,82.32
2023-04-16T22:23:46.705Z,82.40
2023-04-16T22:27:08.525Z,82.32
2023-04-16T22:30:31.239Z,81.76
2023-04-16T22:33:53.127Z,81.64
2023-04-16T22:37:15.668Z,81.24
2023-04-16T22:40:37.481Z,80.43
2023-04-16T22:43:59.462Z,80.39
2023-04-16T22:47:22.690Z,80.56
2023-04-16T22:50:48.720Z,79.80
2023-04-16T22:54:13.649Z,79.53
2023-04-16T22:57:35.632Z,79.29
2023-04-16T23:00:59.596Z,79.22
2023-04-16T23:04:22.940Z,78.79
2023-04-16T23:07:44.340Z,78.36
2023-04-16T23:11:06.428Z,78.16
2023-04-16T23:14:28.013Z,78.23
2023-04-16T23:17:50.172Z,78.04
2023-04-16T23:21:13.363Z,77.55
2023-04-16T23:24:34.734Z,77.03
2023-04-16T23:27:56.665Z,76.29
2023-04-16T23:31:18.531Z,76.50
2023-04-16T23:34:41.748Z,76.08
2023-04-16T23:38:05.138Z,76.44
2023-04-16T23:41:26.484Z,75.97
2023-04-16T23:44:48.482Z,75.48
2023-04-16T23:48:10.231Z,75.37
2023-04-16T23:51:32.024Z,75.45
2023-04-16T23:54:55.059Z,75.59
2023-04-16T23:58:16.483Z,75.00
